sensor_id;sensor_type;location;lat;lon;timestamp;P1;durP1;ratioP1;P2;durP2;ratioP2
40537;SDS011;27925;41.874;12.526;2024-03-17T00:00:22;28.90;;;17.10;;
40537;SDS011;27925;41.874;12.526;2024-03-17T00:02:48;26.02;;;16.80;;
40537;SDS011;27925;41.874;12.526;2024-03-17T00:05:14;25.88;;;17.13;;
40537;SDS011;27925;41.874;12.526;2024-03-17T00:07:40;27.45;;;16.95;;
40537;SDS011;27925;41.874;12.526;2024-03-17T00:10:06;26.50;;;17.40;;
40537;SDS011;27925;41.874;12.526;2024-03-17T00:12:32;28.27;;;16.35;;
40537;SDS011;27925;41.874;12.526;2024-03-17T00:14:58;24.83;;;17.08;;
40537;SDS011;27925;41.874;12.526;2024-03-17T00:17:24;26.27;;;15.82;;
40537;SDS011;27925;41.874;12.526;2024-03-17T00:19:50;29.92;;;16.58;;
40537;SDS011;27925;41.874;12.526;2024-03-17T00:22:16;25.48;;;16.45;;
40537;SDS011;27925;41.874;12.526;2024-03-17T00:24:42;30.52;;;15.63;;
40537;SDS011;27925;41.874;12.526;2024-03-17T00:27:08;32.17;;;17.27;;
40537;SDS011;27925;41.874;12.526;2024-03-17T00:29:36;25.70;;;17.33;;
40537;SDS011;27925;41.874;12.526;2024-03-17T00:32:02;26.98;;;18.25;;
40537;SDS011;27925;41.874;12.526;2024-03-17T00:34:28;25.80;;;17.90;;
40537;SDS011;27925;41.874;12.526;2024-03-17T00:36:54;25.63;;;17.85;;
40537;SDS011;27925;41.874;12.526;2024-03-17T00:39:19;27.00;;;18.55;;
40537;SDS011;27925;41.874;12.526;2024-03-17T00:41:45;28.90;;;18.17;;
40537;SDS011;27925;41.874;12.526;2024-03-17T00:44:11;31.55;;;19.42;;
40537;SDS011;27925;41.874;12.526;2024-03-17T00:46:36;31.98;;;20.30;;
40537;SDS011;27925;41.874;12.526;2024-03-17T00:49:02;33.30;;;21.17;;
40537;SDS011;27925;41.874;12.526;2024-03-17T00:51:28;29.67;;;18.95;;
40537;SDS011;27925;41.874;12.526;2024-03-17T00:53:53;31.55;;;18.83;;
40537;SDS011;27925;41.874;12.526;2024-03-17T00:56:21;29.52;;;18.45;;
40537;SDS011;27925;41.874;12.526;2024-03-17T00:58:47;27.23;;;17.67;;
40537;SDS011;27925;41.874;12.526;2024-03-17T01:01:16;27.23;;;17.98;;
40537;SDS011;27925;41.874;12.526;2024-03-17T01:03:42;35.00;;;19.48;;
40537;SDS011;27925;41.874;12.526;2024-03-17T01:06:08;34.15;;;19.73;;
40537;SDS011;27925;41.874;12.526;2024-03-17T01:08:34;30.23;;;18.67;;
40537;SDS011;27925;41.874;12.526;2024-03-17T01:10:59;30.17;;;20.00;;
40537;SDS011;27925;41.874;12.526;2024-03-17T01:13:26;26.23;;;19.35;;
40537;SDS011;27925;41.874;12.526;2024-03-17T01:15:52;30.10;;;18.83;;
40537;SDS011;27925;41.874;12.526;2024-03-17T01:18:18;31.23;;;19.40;;
40537;SDS011;27925;41.874;12.526;2024-03-17T01:20:44;32.13;;;21.38;;
40537;SDS011;27925;41.874;12.526;2024-03-17T01:23:10;28.25;;;20.05;;
40537;SDS011;27925;41.874;12.526;2024-03-17T01:25:36;30.80;;;20.85;;
40537;SDS011;27925;41.874;12.526;2024-03-17T01:28:02;35.30;;;22.50;;
40537;SDS011;27925;41.874;12.526;2024-03-17T01:30:31;30.77;;;20.90;;
40537;SDS011;27925;41.874;12.526;2024-03-17T01:32:59;35.53;;;21.35;;
40537;SDS011;27925;41.874;12.526;2024-03-17T01:35:25;32.55;;;22.38;;
40537;SDS011;27925;41.874;12.526;2024-03-17T01:37:51;38.25;;;22.67;;
40537;SDS011;27925;41.874;12.526;2024-03-17T01:40:17;36.25;;;23.40;;
40537;SDS011;27925;41.874;12.526;2024-03-17T01:42:43;30.95;;;21.98;;
40537;SDS011;27925;41.874;12.526;2024-03-17T01:45:20;36.92;;;22.70;;
40537;SDS011;27925;41.874;12.526;2024-03-17T01:47:54;32.58;;;22.77;;
40537;SDS011;27925;41.874;12.526;2024-03-17T01:50:24;32.88;;;22.25;;
40537;SDS011;27925;41.874;12.526;2024-03-17T01:52:53;37.92;;;23.45;;
40537;SDS011;27925;41.874;12.526;2024-03-17T01:55:21;29.50;;;20.73;;
40537;SDS011;27925;41.874;12.526;2024-03-17T01:57:51;38.72;;;22.50;;
40537;SDS011;27925;41.874;12.526;2024-03-17T02:00:17;38.00;;;21.83;;
40537;SDS011;27925;41.874;12.526;2024-03-17T02:02:43;27.95;;;20.77;;
40537;SDS011;27925;41.874;12.526;2024-03-17T02:05:08;29.67;;;19.75;;
40537;SDS011;27925;41.874;12.526;2024-03-17T02:07:35;33.35;;;20.40;;
40537;SDS011;27925;41.874;12.526;2024-03-17T02:10:01;31.45;;;20.70;;
40537;SDS011;27925;41.874;12.526;2024-03-17T02:12:28;28.88;;;19.42;;
40537;SDS011;27925;41.874;12.526;2024-03-17T02:14:56;27.00;;;19.58;;
40537;SDS011;27925;41.874;12.526;2024-03-17T02:17:23;27.42;;;19.08;;
40537;SDS011;27925;41.874;12.526;2024-03-17T02:19:50;30.20;;;20.30;;
40537;SDS011;27925;41.874;12.526;2024-03-17T02:22:17;32.13;;;20.23;;
40537;SDS011;27925;41.874;12.526;2024-03-17T02:24:43;25.63;;;19.80;;
40537;SDS011;27925;41.874;12.526;2024-03-17T02:27:09;28.85;;;20.70;;
40537;SDS011;27925;41.874;12.526;2024-03-17T02:29:35;28.05;;;20.70;;
40537;SDS011;27925;41.874;12.526;2024-03-17T02:32:05;29.83;;;22.63;;
40537;SDS011;27925;41.874;12.526;2024-03-17T02:34:33;33.42;;;22.10;;
40537;SDS011;27925;41.874;12.526;2024-03-17T02:36:59;34.63;;;23.13;;
40537;SDS011;27925;41.874;12.526;2024-03-17T02:39:25;30.95;;;22.42;;
40537;SDS011;27925;41.874;12.526;2024-03-17T02:42:04;30.33;;;22.38;;
40537;SDS011;27925;41.874;12.526;2024-03-17T02:44:34;28.42;;;22.45;;
40537;SDS011;27925;41.874;12.526;2024-03-17T02:47:02;33.22;;;22.98;;
40537;SDS011;27925;41.874;12.526;2024-03-17T02:49:33;30.08;;;22.15;;
40537;SDS011;27925;41.874;12.526;2024-03-17T02:52:04;30.48;;;23.50;;
40537;SDS011;27925;41.874;12.526;2024-03-17T02:54:34;29.00;;;22.98;;
40537;SDS011;27925;41.874;12.526;2024-03-17T02:57:01;32.33;;;22.73;;
40537;SDS011;27925;41.874;12.526;2024-03-17T02:59:27;31.33;;;21.25;;
40537;SDS011;27925;41.874;12.526;2024-03-17T03:01:53;28.48;;;19.55;;
40537;SDS011;27925;41.874;12.526;2024-03-17T03:04:20;33.30;;;20.77;;
40537;SDS011;27925;41.874;12.526;2024-03-17T03:06:46;27.92;;;19.27;;
40537;SDS011;27925;41.874;12.526;2024-03-17T03:09:12;26.23;;;19.92;;
40537;SDS011;27925;41.874;12.526;2024-03-17T03:11:42;25.48;;;18.95;;
40537;SDS011;27925;41.874;12.526;2024-03-17T03:14:08;27.75;;;19.30;;
40537;SDS011;27925;41.874;12.526;2024-03-17T03:16:33;23.83;;;18.10;;
40537;SDS011;27925;41.874;12.526;2024-03-17T03:18:59;34.53;;;19.15;;
40537;SDS011;27925;41.874;12.526;2024-03-17T03:21:25;23.30;;;17.52;;
40537;SDS011;27925;41.874;12.526;2024-03-17T03:23:51;23.98;;;17.40;;
40537;SDS011;27925;41.874;12.526;2024-03-17T03:26:17;22.65;;;16.95;;
40537;SDS011;27925;41.874;12.526;2024-03-17T03:28:43;25.95;;;17.95;;
40537;SDS011;27925;41.874;12.526;2024-03-17T03:31:12;23.30;;;16.98;;
40537;SDS011;27925;41.874;12.526;2024-03-17T03:33:41;27.08;;;17.40;;
40537;SDS011;27925;41.874;12.526;2024-03-17T03:36:10;26.05;;;16.73;;
40537;SDS011;27925;41.874;12.526;2024-03-17T03:38:37;25.15;;;14.70;;
40537;SDS011;27925;41.874;12.526;2024-03-17T03:41:07;21.80;;;15.48;;
40537;SDS011;27925;41.874;12.526;2024-03-17T03:43:39;22.27;;;15.50;;
40537;SDS011;27925;41.874;12.526;2024-03-17T03:46:05;24.17;;;15.13;;
40537;SDS011;27925;41.874;12.526;2024-03-17T03:48:32;23.13;;;15.52;;
40537;SDS011;27925;41.874;12.526;2024-03-17T03:50:59;20.83;;;15.57;;
40537;SDS011;27925;41.874;12.526;2024-03-17T03:53:34;22.95;;;16.02;;
40537;SDS011;27925;41.874;12.526;2024-03-17T03:56:02;22.73;;;15.13;;
40537;SDS011;27925;41.874;12.526;2024-03-17T03:58:31;25.83;;;16.45;;
40537;SDS011;27925;41.874;12.526;2024-03-17T04:01:00;25.52;;;15.70;;
40537;SDS011;27925;41.874;12.526;2024-03-17T04:03:28;28.52;;;17.00;;
40537;SDS011;27925;41.874;12.526;2024-03-17T04:06:00;32.00;;;17.85;;
40537;SDS011;27925;41.874;12.526;2024-03-17T04:08:30;29.58;;;16.38;;
40537;SDS011;27925;41.874;12.526;2024-03-17T04:10:57;27.27;;;16.77;;
40537;SDS011;27925;41.874;12.526;2024-03-17T04:13:23;30.95;;;17.83;;
40537;SDS011;27925;41.874;12.526;2024-03-17T04:15:48;27.83;;;17.58;;
40537;SDS011;27925;41.874;12.526;2024-03-17T04:18:14;25.00;;;15.98;;
40537;SDS011;27925;41.874;12.526;2024-03-17T04:20:42;26.85;;;16.80;;
40537;SDS011;27925;41.874;12.526;2024-03-17T04:23:08;30.55;;;16.00;;
40537;SDS011;27925;41.874;12.526;2024-03-17T04:25:33;27.15;;;15.38;;
40537;SDS011;27925;41.874;12.526;2024-03-17T04:27:59;24.52;;;15.85;;
40537;SDS011;27925;41.874;12.526;2024-03-17T04:30:25;23.65;;;15.93;;
40537;SDS011;27925;41.874;12.526;2024-03-17T04:32:50;23.50;;;14.68;;
40537;SDS011;27925;41.874;12.526;2024-03-17T04:35:17;24.70;;;15.95;;
40537;SDS011;27925;41.874;12.526;2024-03-17T04:37:43;25.15;;;15.70;;
40537;SDS011;27925;41.874;12.526;2024-03-17T04:40:08;24.27;;;15.55;;
40537;SDS011;27925;41.874;12.526;2024-03-17T04:42:35;23.27;;;14.98;;
40537;SDS011;27925;41.874;12.526;2024-03-17T04:45:00;26.52;;;15.55;;
40537;SDS011;27925;41.874;12.526;2024-03-17T04:47:26;26.38;;;16.63;;
40537;SDS011;27925;41.874;12.526;2024-03-17T04:49:52;25.92;;;15.40;;
40537;SDS011;27925;41.874;12.526;2024-03-17T04:52:17;22.55;;;15.27;;
40537;SDS011;27925;41.874;12.526;2024-03-17T04:54:43;22.73;;;14.98;;
40537;SDS011;27925;41.874;12.526;2024-03-17T04:57:09;24.42;;;16.17;;
40537;SDS011;27925;41.874;12.526;2024-03-17T04:59:35;21.48;;;15.15;;
40537;SDS011;27925;41.874;12.526;2024-03-17T05:02:01;24.50;;;15.65;;
40537;SDS011;27925;41.874;12.526;2024-03-17T05:04:27;21.70;;;15.00;;
40537;SDS011;27925;41.874;12.526;2024-03-17T05:06:53;28.27;;;16.17;;
40537;SDS011;27925;41.874;12.526;2024-03-17T05:09:19;23.52;;;16.42;;
40537;SDS011;27925;41.874;12.526;2024-03-17T05:11:45;28.25;;;17.95;;
40537;SDS011;27925;41.874;12.526;2024-03-17T05:14:12;28.75;;;18.02;;
40537;SDS011;27925;41.874;12.526;2024-03-17T05:16:38;25.10;;;16.77;;
40537;SDS011;27925;41.874;12.526;2024-03-17T05:19:04;26.23;;;16.92;;
40537;SDS011;27925;41.874;12.526;2024-03-17T05:21:30;28.20;;;18.48;;
40537;SDS011;27925;41.874;12.526;2024-03-17T05:24:00;27.13;;;17.10;;
40537;SDS011;27925;41.874;12.526;2024-03-17T05:26:26;28.30;;;18.63;;
40537;SDS011;27925;41.874;12.526;2024-03-17T05:28:52;24.05;;;16.13;;
40537;SDS011;27925;41.874;12.526;2024-03-17T05:31:18;22.85;;;16.90;;
40537;SDS011;27925;41.874;12.526;2024-03-17T05:33:46;23.98;;;17.42;;
40537;SDS011;27925;41.874;12.526;2024-03-17T05:36:12;25.02;;;17.75;;
40537;SDS011;27925;41.874;12.526;2024-03-17T05:38:39;28.77;;;18.15;;
40537;SDS011;27925;41.874;12.526;2024-03-17T05:41:05;22.52;;;16.98;;
40537;SDS011;27925;41.874;12.526;2024-03-17T05:43:32;24.75;;;17.27;;
40537;SDS011;27925;41.874;12.526;2024-03-17T05:46:03;25.33;;;16.80;;
40537;SDS011;27925;41.874;12.526;2024-03-17T05:48:37;25.08;;;16.50;;
40537;SDS011;27925;41.874;12.526;2024-03-17T05:51:07;23.30;;;16.33;;
40537;SDS011;27925;41.874;12.526;2024-03-17T05:53:37;27.73;;;17.00;;
40537;SDS011;27925;41.874;12.526;2024-03-17T05:56:09;22.17;;;16.63;;
40537;SDS011;27925;41.874;12.526;2024-03-17T05:58:36;27.02;;;16.30;;
40537;SDS011;27925;41.874;12.526;2024-03-17T06:01:02;24.73;;;16.83;;
40537;SDS011;27925;41.874;12.526;2024-03-17T06:03:29;23.35;;;16.05;;
40537;SDS011;27925;41.874;12.526;2024-03-17T06:05:54;22.65;;;16.15;;
40537;SDS011;27925;41.874;12.526;2024-03-17T06:08:20;23.92;;;16.20;;
40537;SDS011;27925;41.874;12.526;2024-03-17T06:10:47;23.40;;;16.38;;
40537;SDS011;27925;41.874;12.526;2024-03-17T06:13:14;24.75;;;16.10;;
40537;SDS011;27925;41.874;12.526;2024-03-17T06:15:42;20.67;;;15.45;;
40537;SDS011;27925;41.874;12.526;2024-03-17T06:18:09;21.73;;;15.10;;
40537;SDS011;27925;41.874;12.526;2024-03-17T06:20:42;23.58;;;15.07;;
40537;SDS011;27925;41.874;12.526;2024-03-17T06:23:12;22.95;;;15.30;;
40537;SDS011;27925;41.874;12.526;2024-03-17T06:25:42;24.08;;;15.05;;
40537;SDS011;27925;41.874;12.526;2024-03-17T06:28:09;22.02;;;15.82;;
40537;SDS011;27925;41.874;12.526;2024-03-17T06:30:39;21.67;;;15.27;;
40537;SDS011;27925;41.874;12.526;2024-03-17T06:33:10;21.65;;;15.90;;
40537;SDS011;27925;41.874;12.526;2024-03-17T06:35:37;26.45;;;15.05;;
40537;SDS011;27925;41.874;12.526;2024-03-17T06:38:03;22.58;;;15.02;;
40537;SDS011;27925;41.874;12.526;2024-03-17T06:40:29;21.70;;;14.75;;
40537;SDS011;27925;41.874;12.526;2024-03-17T06:42:55;21.05;;;14.68;;
40537;SDS011;27925;41.874;12.526;2024-03-17T06:45:22;25.40;;;15.50;;
40537;SDS011;27925;41.874;12.526;2024-03-17T06:47:47;22.05;;;15.23;;
40537;SDS011;27925;41.874;12.526;2024-03-17T06:50:13;19.20;;;13.43;;
40537;SDS011;27925;41.874;12.526;2024-03-17T06:52:39;21.15;;;14.45;;
40537;SDS011;27925;41.874;12.526;2024-03-17T06:55:05;18.20;;;13.02;;
40537;SDS011;27925;41.874;12.526;2024-03-17T06:57:34;19.85;;;13.57;;
40537;SDS011;27925;41.874;12.526;2024-03-17T07:00:00;22.13;;;13.93;;
40537;SDS011;27925;41.874;12.526;2024-03-17T07:02:26;18.27;;;12.48;;
40537;SDS011;27925;41.874;12.526;2024-03-17T07:04:52;17.27;;;12.10;;
40537;SDS011;27925;41.874;12.526;2024-03-17T07:07:17;17.90;;;11.48;;
40537;SDS011;27925;41.874;12.526;2024-03-17T07:09:43;18.17;;;11.02;;
40537;SDS011;27925;41.874;12.526;2024-03-17T07:12:09;16.73;;;11.00;;
40537;SDS011;27925;41.874;12.526;2024-03-17T07:14:38;17.05;;;11.60;;
40537;SDS011;27925;41.874;12.526;2024-03-17T07:17:04;20.77;;;15.88;;
40537;SDS011;27925;41.874;12.526;2024-03-17T07:19:29;17.65;;;13.48;;
40537;SDS011;27925;41.874;12.526;2024-03-17T07:21:56;18.27;;;11.65;;
40537;SDS011;27925;41.874;12.526;2024-03-17T07:24:22;17.20;;;11.68;;
40537;SDS011;27925;41.874;12.526;2024-03-17T07:26:48;17.38;;;10.20;;
40537;SDS011;27925;41.874;12.526;2024-03-17T07:29:15;17.10;;;11.90;;
40537;SDS011;27925;41.874;12.526;2024-03-17T07:31:41;18.73;;;11.88;;
40537;SDS011;27925;41.874;12.526;2024-03-17T07:34:07;16.45;;;11.20;;
40537;SDS011;27925;41.874;12.526;2024-03-17T07:36:33;17.48;;;11.20;;
40537;SDS011;27925;41.874;12.526;2024-03-17T07:38:58;17.48;;;10.73;;
40537;SDS011;27925;41.874;12.526;2024-03-17T07:41:24;17.05;;;11.68;;
40537;SDS011;27925;41.874;12.526;2024-03-17T07:43:50;18.50;;;14.25;;
40537;SDS011;27925;41.874;12.526;2024-03-17T07:46:15;18.88;;;11.50;;
40537;SDS011;27925;41.874;12.526;2024-03-17T07:48:42;17.60;;;10.48;;
40537;SDS011;27925;41.874;12.526;2024-03-17T07:51:09;16.65;;;10.48;;
40537;SDS011;27925;41.874;12.526;2024-03-17T07:53:36;18.60;;;10.93;;
40537;SDS011;27925;41.874;12.526;2024-03-17T07:56:03;18.70;;;9.90;;
40537;SDS011;27925;41.874;12.526;2024-03-17T07:58:30;13.80;;;9.73;;
40537;SDS011;27925;41.874;12.526;2024-03-17T08:01:00;15.98;;;9.50;;
40537;SDS011;27925;41.874;12.526;2024-03-17T08:03:27;16.27;;;9.65;;
40537;SDS011;27925;41.874;12.526;2024-03-17T08:05:53;16.88;;;10.00;;
40537;SDS011;27925;41.874;12.526;2024-03-17T08:08:19;14.98;;;10.30;;
40537;SDS011;27925;41.874;12.526;2024-03-17T08:10:46;14.27;;;9.38;;
40537;SDS011;27925;41.874;12.526;2024-03-17T08:13:13;15.13;;;9.23;;
40537;SDS011;27925;41.874;12.526;2024-03-17T08:15:41;13.90;;;9.07;;
40537;SDS011;27925;41.874;12.526;2024-03-17T08:18:10;14.15;;;9.30;;
40537;SDS011;27925;41.874;12.526;2024-03-17T08:20:40;15.82;;;10.00;;
40537;SDS011;27925;41.874;12.526;2024-03-17T08:23:07;16.75;;;10.25;;
40537;SDS011;27925;41.874;12.526;2024-03-17T08:25:33;14.27;;;10.13;;
40537;SDS011;27925;41.874;12.526;2024-03-17T08:28:00;16.38;;;9.85;;
40537;SDS011;27925;41.874;12.526;2024-03-17T08:30:26;14.38;;;8.75;;
40537;SDS011;27925;41.874;12.526;2024-03-17T08:32:52;17.83;;;11.20;;
40537;SDS011;27925;41.874;12.526;2024-03-17T08:35:17;17.58;;;11.90;;
40537;SDS011;27925;41.874;12.526;2024-03-17T08:37:43;18.88;;;11.52;;
40537;SDS011;27925;41.874;12.526;2024-03-17T08:40:10;18.70;;;12.27;;
40537;SDS011;27925;41.874;12.526;2024-03-17T08:42:36;19.83;;;12.70;;
40537;SDS011;27925;41.874;12.526;2024-03-17T08:45:01;16.23;;;10.68;;
40537;SDS011;27925;41.874;12.526;2024-03-17T08:47:28;18.88;;;12.40;;
40537;SDS011;27925;41.874;12.526;2024-03-17T08:49:53;16.30;;;11.30;;
40537;SDS011;27925;41.874;12.526;2024-03-17T08:52:19;14.52;;;10.32;;
40537;SDS011;27925;41.874;12.526;2024-03-17T08:54:49;18.50;;;13.52;;
40537;SDS011;27925;41.874;12.526;2024-03-17T08:57:18;15.73;;;10.63;;
40537;SDS011;27925;41.874;12.526;2024-03-17T08:59:47;17.00;;;10.10;;
40537;SDS011;27925;41.874;12.526;2024-03-17T09:02:13;15.63;;;10.60;;
40537;SDS011;27925;41.874;12.526;2024-03-17T09:04:40;16.08;;;9.38;;
40537;SDS011;27925;41.874;12.526;2024-03-17T09:07:06;12.85;;;7.97;;
40537;SDS011;27925;41.874;12.526;2024-03-17T09:09:32;12.63;;;7.35;;
40537;SDS011;27925;41.874;12.526;2024-03-17T09:11:58;13.50;;;7.60;;
40537;SDS011;27925;41.874;12.526;2024-03-17T09:14:23;11.15;;;7.45;;
40537;SDS011;27925;41.874;12.526;2024-03-17T09:16:49;14.63;;;9.07;;
40537;SDS011;27925;41.874;12.526;2024-03-17T09:19:15;13.52;;;7.88;;
40537;SDS011;27925;41.874;12.526;2024-03-17T09:21:40;14.18;;;7.53;;
40537;SDS011;27925;41.874;12.526;2024-03-17T09:24:06;11.48;;;6.70;;
40537;SDS011;27925;41.874;12.526;2024-03-17T09:26:36;10.10;;;6.15;;
40537;SDS011;27925;41.874;12.526;2024-03-17T09:29:04;11.52;;;7.90;;
40537;SDS011;27925;41.874;12.526;2024-03-17T09:31:30;11.63;;;7.35;;
40537;SDS011;27925;41.874;12.526;2024-03-17T09:33:58;12.45;;;8.23;;
40537;SDS011;27925;41.874;12.526;2024-03-17T09:36:24;11.65;;;6.38;;
40537;SDS011;27925;41.874;12.526;2024-03-17T09:38:50;9.82;;;5.95;;
40537;SDS011;27925;41.874;12.526;2024-03-17T09:41:20;10.88;;;6.03;;
40537;SDS011;27925;41.874;12.526;2024-03-17T09:43:47;9.55;;;5.85;;
40537;SDS011;27925;41.874;12.526;2024-03-17T09:46:14;10.68;;;5.18;;
40537;SDS011;27925;41.874;12.526;2024-03-17T09:48:41;9.55;;;5.60;;
40537;SDS011;27925;41.874;12.526;2024-03-17T09:51:08;11.32;;;5.78;;
40537;SDS011;27925;41.874;12.526;2024-03-17T09:53:45;8.65;;;4.95;;
40537;SDS011;27925;41.874;12.526;2024-03-17T09:56:12;9.63;;;5.32;;
40537;SDS011;27925;41.874;12.526;2024-03-17T09:58:41;7.78;;;4.70;;
40537;SDS011;27925;41.874;12.526;2024-03-17T10:01:07;10.77;;;5.28;;
40537;SDS011;27925;41.874;12.526;2024-03-17T10:03:39;12.75;;;6.05;;
40537;SDS011;27925;41.874;12.526;2024-03-17T10:06:08;9.15;;;5.65;;
40537;SDS011;27925;41.874;12.526;2024-03-17T10:08:43;12.07;;;5.75;;
40537;SDS011;27925;41.874;12.526;2024-03-17T10:11:11;9.32;;;5.45;;
40537;SDS011;27925;41.874;12.526;2024-03-17T10:13:41;8.80;;;6.07;;
40537;SDS011;27925;41.874;12.526;2024-03-17T10:16:20;10.63;;;5.80;;
40537;SDS011;27925;41.874;12.526;2024-03-17T10:18:51;9.50;;;5.35;;
40537;SDS011;27925;41.874;12.526;2024-03-17T10:21:35;11.30;;;6.07;;
40537;SDS011;27925;41.874;12.526;2024-03-17T10:24:09;8.90;;;5.68;;
40537;SDS011;27925;41.874;12.526;2024-03-17T10:26:48;9.95;;;5.82;;
40537;SDS011;27925;41.874;12.526;2024-03-17T10:29:38;9.10;;;5.88;;
40537;SDS011;27925;41.874;12.526;2024-03-17T10:32:04;12.02;;;5.88;;
40537;SDS011;27925;41.874;12.526;2024-03-17T10:34:38;11.40;;;8.13;;
40537;SDS011;27925;41.874;12.526;2024-03-17T10:37:11;8.05;;;5.28;;
40537;SDS011;27925;41.874;12.526;2024-03-17T10:39:39;9.00;;;4.60;;
40537;SDS011;27925;41.874;12.526;2024-03-17T10:42:07;7.72;;;4.68;;
40537;SDS011;27925;41.874;12.526;2024-03-17T10:44:42;7.53;;;4.45;;
40537;SDS011;27925;41.874;12.526;2024-03-17T10:47:32;9.43;;;3.90;;
40537;SDS011;27925;41.874;12.526;2024-03-17T10:49:57;6.30;;;3.55;;
40537;SDS011;27925;41.874;12.526;2024-03-17T10:52:28;7.10;;;3.60;;
40537;SDS011;27925;41.874;12.526;2024-03-17T10:55:00;8.38;;;3.28;;
40537;SDS011;27925;41.874;12.526;2024-03-17T11:00:04;6.50;;;3.55;;
40537;SDS011;27925;41.874;12.526;2024-03-17T11:02:33;4.85;;;3.03;;
40537;SDS011;27925;41.874;12.526;2024-03-17T11:05:02;6.15;;;3.03;;
40537;SDS011;27925;41.874;12.526;2024-03-17T11:07:29;6.60;;;3.22;;
40537;SDS011;27925;41.874;12.526;2024-03-17T11:09:59;5.65;;;3.25;;
40537;SDS011;27925;41.874;12.526;2024-03-17T11:17:52;6.60;;;3.25;;
40537;SDS011;27925;41.874;12.526;2024-03-17T11:20:21;7.78;;;3.53;;
40537;SDS011;27925;41.874;12.526;2024-03-17T11:22:49;7.07;;;4.18;;
40537;SDS011;27925;41.874;12.526;2024-03-17T11:27:50;6.80;;;3.58;;
40537;SDS011;27925;41.874;12.526;2024-03-17T11:49:22;7.10;;;3.78;;
40537;SDS011;27925;41.874;12.526;2024-03-17T11:51:55;5.30;;;3.17;;
40537;SDS011;27925;41.874;12.526;2024-03-17T11:54:24;7.32;;;3.00;;
40537;SDS011;27925;41.874;12.526;2024-03-17T11:56:55;7.65;;;3.63;;
40537;SDS011;27925;41.874;12.526;2024-03-17T11:59:25;8.30;;;3.58;;
40537;SDS011;27925;41.874;12.526;2024-03-17T12:01:52;5.90;;;3.20;;
40537;SDS011;27925;41.874;12.526;2024-03-17T12:04:18;5.90;;;3.15;;
40537;SDS011;27925;41.874;12.526;2024-03-17T12:06:49;6.57;;;3.50;;
40537;SDS011;27925;41.874;12.526;2024-03-17T12:09:26;7.57;;;3.25;;
40537;SDS011;27925;41.874;12.526;2024-03-17T12:12:16;7.20;;;3.55;;
40537;SDS011;27925;41.874;12.526;2024-03-17T12:14:46;8.10;;;3.83;;
40537;SDS011;27925;41.874;12.526;2024-03-17T12:17:14;11.30;;;3.88;;
40537;SDS011;27925;41.874;12.526;2024-03-17T12:19:40;7.85;;;3.70;;
40537;SDS011;27925;41.874;12.526;2024-03-17T12:22:09;6.68;;;3.97;;
40537;SDS011;27925;41.874;12.526;2024-03-17T12:24:44;7.07;;;3.65;;
40537;SDS011;27925;41.874;12.526;2024-03-17T12:27:15;6.45;;;3.38;;
40537;SDS011;27925;41.874;12.526;2024-03-17T12:29:43;15.10;;;4.60;;
40537;SDS011;27925;41.874;12.526;2024-03-17T12:34:36;8.55;;;4.28;;
40537;SDS011;27925;41.874;12.526;2024-03-17T12:37:03;6.15;;;3.53;;
40537;SDS011;27925;41.874;12.526;2024-03-17T12:39:30;6.68;;;3.60;;
40537;SDS011;27925;41.874;12.526;2024-03-17T12:42:16;9.52;;;3.58;;
40537;SDS011;27925;41.874;12.526;2024-03-17T12:44:48;7.00;;;4.30;;
40537;SDS011;27925;41.874;12.526;2024-03-17T12:47:15;7.45;;;3.88;;
40537;SDS011;27925;41.874;12.526;2024-03-17T12:49:46;6.60;;;3.55;;
40537;SDS011;27925;41.874;12.526;2024-03-17T12:52:19;8.38;;;4.30;;
40537;SDS011;27925;41.874;12.526;2024-03-17T13:01:08;8.90;;;4.05;;
40537;SDS011;27925;41.874;12.526;2024-03-17T13:03:34;10.35;;;4.25;;
40537;SDS011;27925;41.874;12.526;2024-03-17T13:06:01;7.03;;;3.88;;
40537;SDS011;27925;41.874;12.526;2024-03-17T13:08:28;8.25;;;4.05;;
40537;SDS011;27925;41.874;12.526;2024-03-17T13:10:53;10.30;;;4.28;;
40537;SDS011;27925;41.874;12.526;2024-03-17T13:13:20;9.93;;;4.00;;
40537;SDS011;27925;41.874;12.526;2024-03-17T13:15:46;8.15;;;4.43;;
40537;SDS011;27925;41.874;12.526;2024-03-17T13:18:15;9.73;;;6.13;;
40537;SDS011;27925;41.874;12.526;2024-03-17T13:20:43;8.23;;;4.60;;
40537;SDS011;27925;41.874;12.526;2024-03-17T13:23:09;9.30;;;4.68;;
40537;SDS011;27925;41.874;12.526;2024-03-17T13:25:34;10.60;;;4.57;;
40537;SDS011;27925;41.874;12.526;2024-03-17T13:28:02;11.43;;;4.30;;
40537;SDS011;27925;41.874;12.526;2024-03-17T13:30:29;10.30;;;5.13;;
40537;SDS011;27925;41.874;12.526;2024-03-17T13:32:55;9.25;;;5.30;;
40537;SDS011;27925;41.874;12.526;2024-03-17T13:35:28;10.77;;;5.70;;
40537;SDS011;27925;41.874;12.526;2024-03-17T13:37:55;9.60;;;5.03;;
40537;SDS011;27925;41.874;12.526;2024-03-17T13:40:24;8.75;;;5.22;;
40537;SDS011;27925;41.874;12.526;2024-03-17T13:42:51;26.00;;;16.73;;
40537;SDS011;27925;41.874;12.526;2024-03-17T13:45:19;11.40;;;5.80;;
40537;SDS011;27925;41.874;12.526;2024-03-17T13:47:58;10.52;;;5.45;;
40537;SDS011;27925;41.874;12.526;2024-03-17T13:50:25;11.73;;;5.47;;
40537;SDS011;27925;41.874;12.526;2024-03-17T13:52:51;9.98;;;5.00;;
40537;SDS011;27925;41.874;12.526;2024-03-17T13:55:20;9.27;;;4.25;;
40537;SDS011;27925;41.874;12.526;2024-03-17T13:57:50;9.85;;;4.65;;
40537;SDS011;27925;41.874;12.526;2024-03-17T14:00:16;16.85;;;4.53;;
40537;SDS011;27925;41.874;12.526;2024-03-17T14:02:45;9.10;;;3.85;;
40537;SDS011;27925;41.874;12.526;2024-03-17T14:05:18;9.27;;;3.88;;
40537;SDS011;27925;41.874;12.526;2024-03-17T14:07:45;5.68;;;3.40;;
40537;SDS011;27925;41.874;12.526;2024-03-17T14:10:12;7.28;;;3.03;;
40537;SDS011;27925;41.874;12.526;2024-03-17T14:12:39;8.50;;;3.90;;
40537;SDS011;27925;41.874;12.526;2024-03-17T14:15:06;8.68;;;3.63;;
40537;SDS011;27925;41.874;12.526;2024-03-17T14:17:46;7.28;;;3.28;;
40537;SDS011;27925;41.874;12.526;2024-03-17T14:20:14;8.75;;;3.22;;
40537;SDS011;27925;41.874;12.526;2024-03-17T14:22:43;10.20;;;2.85;;
40537;SDS011;27925;41.874;12.526;2024-03-17T14:25:14;9.82;;;3.78;;
40537;SDS011;27925;41.874;12.526;2024-03-17T14:27:42;8.90;;;3.28;;
40537;SDS011;27925;41.874;12.526;2024-03-17T14:30:08;8.18;;;3.92;;
40537;SDS011;27925;41.874;12.526;2024-03-17T14:32:39;10.75;;;3.30;;
40537;SDS011;27925;41.874;12.526;2024-03-17T14:35:05;5.80;;;3.05;;
40537;SDS011;27925;41.874;12.526;2024-03-17T14:37:32;6.65;;;2.95;;
40537;SDS011;27925;41.874;12.526;2024-03-17T14:39:58;7.43;;;2.80;;
40537;SDS011;27925;41.874;12.526;2024-03-17T14:42:24;5.75;;;2.95;;
40537;SDS011;27925;41.874;12.526;2024-03-17T14:44:50;7.55;;;2.83;;
40537;SDS011;27925;41.874;12.526;2024-03-17T14:47:16;7.75;;;3.25;;
40537;SDS011;27925;41.874;12.526;2024-03-17T14:49:42;6.60;;;2.70;;
40537;SDS011;27925;41.874;12.526;2024-03-17T14:52:10;5.80;;;2.85;;
40537;SDS011;27925;41.874;12.526;2024-03-17T14:54:36;9.00;;;4.07;;
40537;SDS011;27925;41.874;12.526;2024-03-17T14:57:03;7.07;;;2.83;;